createdAt,value
2018-08-13T00:02:20.237Z,31.40
2018-08-13T00:04:48.388Z,31.90
2018-08-13T00:07:16.553Z,32.10
2018-08-13T00:09:44.789Z,31.90
2018-08-13T00:12:13.795Z,31.80
2018-08-13T00:14:41.965Z,31.40
2018-08-13T00:17:10.162Z,31.40
2018-08-13T00:19:38.360Z,31.60
2018-08-13T00:22:06.527Z,31.80
2018-08-13T00:24:34.692Z,32.00
2018-08-13T00:27:03.093Z,31.80
2018-08-13T00:29:31.289Z,31.80
2018-08-13T00:31:59.429Z,31.90
2018-08-13T00:34:27.608Z,32.00
2018-08-13T00:36:55.792Z,32.20
2018-08-13T00:39:23.942Z,32.40
2018-08-13T00:41:52.110Z,33.10
2018-08-13T00:44:20.317Z,32.40
2018-08-13T00:46:48.480Z,32.60
2018-08-13T00:49:16.645Z,32.80
2018-08-13T00:51:44.840Z,33.10
2018-08-13T00:54:12.988Z,33.20
2018-08-13T00:56:41.133Z,33.70
2018-08-13T00:59:09.324Z,33.80
2018-08-13T01:01:37.469Z,33.70
2018-08-13T01:04:05.616Z,34.10
2018-08-13T01:06:33.785Z,34.60
2018-08-13T01:09:01.952Z,35.50
2018-08-13T01:11:30.645Z,35.50
2018-08-13T01:13:58.788Z,35.80
2018-08-13T01:16:26.932Z,36.20
2018-08-13T01:18:55.136Z,36.90
2018-08-13T01:21:23.278Z,36.40
2018-08-13T01:23:51.420Z,35.70
2018-08-13T01:26:19.593Z,35.70
2018-08-13T01:28:47.752Z,35.70
2018-08-13T01:31:15.906Z,35.30
2018-08-13T01:33:44.088Z,35.80
2018-08-13T01:36:12.236Z,35.50
2018-08-13T01:38:40.398Z,35.60
2018-08-13T01:41:08.577Z,35.30
2018-08-13T01:43:36.708Z,35.60
2018-08-13T01:46:04.853Z,35.30
2018-08-13T01:48:33.044Z,35.30
2018-08-13T01:51:01.217Z,34.60
2018-08-13T01:53:29.434Z,34.00
2018-08-13T01:55:57.595Z,33.80
2018-08-13T01:58:25.796Z,33.00
2018-08-13T02:00:53.953Z,33.00
2018-08-13T02:03:22.111Z,32.90
2018-08-13T02:05:50.257Z,32.70
2018-08-13T02:08:18.394Z,32.50
2018-08-13T02:10:46.581Z,32.50
2018-08-13T02:13:14.740Z,32.60
2018-08-13T02:15:42.889Z,32.50
2018-08-13T02:18:11.037Z,32.90
2018-08-13T02:20:39.193Z,33.30
2018-08-13T02:23:07.344Z,33.60
2018-08-13T02:25:35.503Z,33.80
2018-08-13T02:28:03.661Z,33.90
2018-08-13T02:30:31.792Z,34.00
2018-08-13T02:32:59.961Z,34.00
2018-08-13T02:35:28.100Z,34.50
2018-08-13T02:37:56.278Z,34.00
2018-08-13T02:40:24.433Z,34.30
2018-08-13T02:42:52.577Z,34.10
2018-08-13T02:45:20.722Z,34.00
2018-08-13T02:47:48.916Z,34.00
2018-08-13T02:50:17.167Z,34.00
2018-08-13T02:52:45.301Z,34.00
2018-08-13T02:55:13.544Z,34.30
2018-08-13T02:57:43.453Z,34.50
2018-08-13T03:00:12.190Z,34.40
2018-08-13T03:02:40.888Z,34.50
2018-08-13T03:05:11.335Z,34.40
2018-08-13T03:07:39.876Z,34.40
2018-08-13T03:10:09.883Z,34.40
2018-08-13T03:12:38.205Z,34.20
2018-08-13T03:15:10.324Z,34.10
2018-08-13T03:17:38.462Z,32.70
2018-08-13T03:20:07.185Z,32.20
2018-08-13T03:22:35.460Z,31.70
2018-08-13T03:25:04.747Z,31.50
2018-08-13T03:27:32.910Z,32.20
2018-08-13T03:30:01.352Z,32.40
2018-08-13T03:32:29.679Z,32.50
2018-08-13T03:34:57.971Z,32.70
2018-08-13T03:37:26.124Z,33.20
2018-08-13T03:39:54.265Z,33.40
2018-08-13T03:42:22.456Z,33.70
2018-08-13T03:44:50.609Z,33.70
2018-08-13T03:47:18.751Z,33.80
2018-08-13T03:49:46.988Z,33.90
2018-08-13T03:52:15.129Z,34.00
2018-08-13T03:54:43.306Z,33.80
2018-08-13T03:57:11.472Z,34.60
2018-08-13T03:59:39.615Z,35.40
2018-08-13T04:02:07.820Z,36.70
2018-08-13T04:04:35.996Z,38.70
2018-08-13T04:07:04.449Z,39.10
2018-08-13T04:09:32.730Z,37.90
2018-08-13T04:12:00.851Z,47.80
2018-08-13T04:14:29.029Z,45.20
2018-08-13T04:17:02.797Z,54.40
2018-08-13T04:19:32.439Z,61.20
2018-08-13T04:22:01.208Z,67.00
2018-08-13T04:24:29.616Z,71.80
2018-08-13T04:26:58.233Z,73.40
2018-08-13T04:29:26.516Z,84.30
2018-08-13T04:31:54.647Z,88.70
2018-08-13T04:34:23.165Z,91.80
2018-08-13T04:36:51.320Z,93.00
2018-08-13T04:39:19.509Z,95.50
2018-08-13T04:41:47.718Z,96.10
2018-08-13T04:44:15.866Z,97.80
2018-08-13T04:46:44.019Z,97.10
2018-08-13T04:49:12.198Z,96.70
2018-08-13T04:51:40.345Z,98.20
2018-08-13T04:54:08.500Z,95.50
2018-08-13T04:56:36.697Z,90.00
2018-08-13T04:59:04.897Z,90.70
2018-08-13T05:01:32.978Z,95.40
2018-08-13T05:04:01.180Z,97.30
2018-08-13T05:06:29.324Z,97.70
2018-08-13T05:08:57.494Z,99.80
2018-08-13T05:11:25.692Z,99.90
2018-08-13T05:13:53.823Z,99.90
2018-08-13T05:16:21.980Z,99.90
2018-08-13T05:18:50.183Z,99.90
2018-08-13T05:21:18.515Z,99.90
2018-08-13T05:23:46.678Z,99.90
2018-08-13T05:26:14.852Z,99.90
2018-08-13T05:28:42.995Z,99.90
2018-08-13T05:31:11.145Z,99.90
2018-08-13T05:33:39.386Z,99.90
2018-08-13T05:36:07.577Z,99.90
2018-08-13T05:38:35.717Z,99.90
2018-08-13T05:41:03.985Z,99.90
2018-08-13T05:43:32.107Z,99.90
2018-08-13T05:46:00.251Z,99.90
2018-08-13T05:48:28.421Z,99.90
2018-08-13T05:50:56.589Z,99.90
2018-08-13T05:53:24.730Z,99.90
2018-08-13T05:55:52.901Z,99.90
2018-08-13T05:58:21.096Z,99.90
2018-08-13T06:00:49.268Z,99.90
2018-08-13T06:03:17.429Z,99.90
2018-08-13T06:05:45.568Z,99.90
2018-08-13T06:08:14.138Z,99.90
2018-08-13T06:10:42.358Z,99.90
2018-08-13T06:13:10.523Z,99.90
2018-08-13T06:15:38.846Z,99.90
2018-08-13T06:18:07.042Z,99.90
2018-08-13T06:20:35.155Z,99.90
2018-08-13T06:23:03.341Z,99.90
2018-08-13T06:25:31.806Z,99.90
2018-08-13T06:27:59.947Z,99.90
2018-08-13T06:30:28.400Z,99.90
2018-08-13T06:32:56.544Z,99.90
2018-08-13T06:35:24.693Z,99.90
2018-08-13T06:37:53.601Z,99.90
2018-08-13T06:40:21.765Z,99.90
2018-08-13T06:42:49.930Z,99.90
2018-08-13T06:45:18.203Z,99.90
2018-08-13T06:47:46.372Z,99.90
2018-08-13T06:50:14.768Z,99.90
2018-08-13T06:52:44.190Z,99.90
2018-08-13T06:55:12.349Z,99.90
2018-08-13T06:57:40.528Z,99.90
2018-08-13T07:00:11.494Z,99.90
2018-08-13T07:02:39.668Z,99.90
2018-08-13T07:05:09.148Z,99.90
2018-08-13T07:07:38.237Z,99.90
2018-08-13T07:10:09.966Z,99.90
2018-08-13T07:15:31.221Z,99.90
2018-08-13T07:17:59.389Z,99.90
2018-08-13T07:20:27.553Z,99.90
2018-08-13T07:22:55.751Z,99.90
2018-08-13T07:25:23.913Z,99.90
2018-08-13T07:27:52.172Z,99.90
2018-08-13T07:30:20.311Z,99.90
2018-08-13T07:32:48.504Z,99.90
2018-08-13T07:35:18.229Z,99.90
2018-08-13T07:37:46.412Z,99.90
2018-08-13T07:40:16.033Z,99.90
2018-08-13T07:42:44.555Z,99.90
2018-08-13T07:45:12.875Z,99.90
2018-08-13T07:47:41.152Z,99.90
2018-08-13T07:50:12.344Z,99.90
2018-08-13T07:52:40.747Z,99.90
2018-08-13T07:55:10.763Z,99.90
2018-08-13T07:57:39.256Z,99.90
2018-08-13T08:00:09.351Z,99.90
2018-08-13T08:02:37.605Z,99.90
2018-08-13T08:05:06.264Z,99.90
2018-08-13T08:07:34.444Z,99.90
2018-08-13T08:10:02.641Z,99.90
2018-08-13T08:12:30.800Z,99.90
2018-08-13T08:14:58.949Z,99.90
2018-08-13T08:17:27.144Z,99.90
2018-08-13T08:19:55.320Z,99.90
2018-08-13T08:22:23.504Z,99.90
2018-08-13T08:24:51.704Z,99.90
2018-08-13T08:27:19.857Z,99.90
2018-08-13T08:29:48.011Z,99.90
2018-08-13T08:32:16.186Z,99.90
2018-08-13T08:34:44.389Z,99.90
2018-08-13T08:37:14.054Z,99.50
2018-08-13T08:39:42.254Z,99.50
2018-08-13T08:42:10.407Z,98.70
2018-08-13T08:44:38.561Z,98.70
2018-08-13T08:47:06.996Z,98.20
2018-08-13T08:49:35.160Z,98.70
2018-08-13T08:52:03.327Z,96.90
2018-08-13T08:54:31.966Z,97.10
2018-08-13T08:57:00.175Z,96.20
2018-08-13T08:59:28.352Z,96.20
2018-08-13T09:01:56.554Z,94.00
2018-08-13T09:04:24.725Z,94.90
2018-08-13T09:06:52.906Z,93.90
2018-08-13T09:09:21.050Z,93.80
2018-08-13T09:11:49.203Z,92.30
2018-08-13T09:14:17.424Z,92.10
2018-08-13T09:16:47.657Z,89.20
2018-08-13T09:20:25.243Z,91.20
2018-08-13T09:23:05.463Z,91.00
2018-08-13T09:25:45.156Z,92.50
2018-08-13T09:29:25.483Z,91.30
2018-08-13T09:33:03.737Z,91.30
2018-08-13T09:35:33.436Z,90.90
2018-08-13T09:38:01.634Z,90.60
2018-08-13T09:40:31.351Z,91.90
2018-08-13T09:42:59.567Z,95.60
2018-08-13T09:45:27.780Z,97.40
2018-08-13T09:47:55.939Z,98.90
2018-08-13T09:50:24.143Z,99.60
2018-08-13T09:52:52.387Z,99.80
2018-08-13T09:55:20.936Z,99.30
2018-08-13T09:57:49.859Z,97.80
2018-08-13T10:00:24.545Z,98.70
2018-08-13T10:02:52.891Z,98.70
2018-08-13T10:05:21.145Z,97.60
2018-08-13T10:07:49.337Z,96.60
2018-08-13T10:10:18.020Z,96.00
2018-08-13T10:12:46.479Z,96.10
2018-08-13T10:15:15.044Z,95.20
2018-08-13T10:17:43.250Z,97.40
2018-08-13T10:20:17.580Z,97.40
2018-08-13T10:22:46.020Z,97.70
2018-08-13T10:25:14.430Z,97.40
2018-08-13T10:27:42.804Z,95.70
2018-08-13T10:30:12.548Z,95.90
2018-08-13T10:32:41.422Z,95.10
2018-08-13T10:35:09.959Z,95.10
2018-08-13T10:37:38.747Z,95.80
2018-08-13T10:40:12.093Z,95.10
2018-08-13T10:42:40.571Z,95.20
2018-08-13T10:45:08.791Z,93.20
2018-08-13T10:47:37.141Z,93.20
2018-08-13T10:50:06.447Z,94.40
2018-08-13T10:52:34.816Z,94.10
2018-08-13T10:55:03.049Z,93.30
2018-08-13T10:57:31.275Z,92.00
2018-08-13T10:59:59.443Z,93.40
2018-08-13T11:02:27.606Z,94.00
2018-08-13T11:04:55.788Z,92.60
2018-08-13T11:07:23.949Z,91.30
2018-08-13T11:09:52.152Z,92.60
2018-08-13T11:12:20.347Z,91.50
2018-08-13T11:14:48.612Z,91.00
2018-08-13T11:17:16.848Z,92.10
2018-08-13T11:19:45.040Z,90.80
2018-08-13T11:22:13.190Z,90.50
2018-08-13T11:24:41.373Z,90.70
2018-08-13T11:27:14.387Z,88.50
2018-08-13T11:29:44.430Z,88.30
2018-08-13T11:32:12.820Z,89.20
2018-08-13T11:34:41.647Z,86.50
2018-08-13T11:37:10.326Z,90.90
2018-08-13T11:39:38.542Z,87.70
2018-08-13T11:42:06.945Z,86.80
2018-08-13T11:44:35.172Z,84.00
2018-08-13T11:47:04.061Z,85.20
2018-08-13T11:49:32.270Z,86.10
2018-08-13T11:52:00.465Z,85.60
2018-08-13T11:54:28.621Z,85.10
2018-08-13T11:56:56.803Z,82.10
2018-08-13T11:59:25.019Z,82.70
2018-08-13T12:01:53.213Z,81.70
2018-08-13T12:04:21.382Z,83.80
2018-08-13T12:06:49.548Z,84.40
2018-08-13T12:09:17.713Z,81.10
2018-08-13T12:11:45.907Z,77.60
2018-08-13T12:14:14.092Z,78.80
2018-08-13T12:16:42.262Z,79.60
2018-08-13T12:19:10.463Z,84.80
2018-08-13T12:21:38.614Z,87.00
2018-08-13T12:24:06.966Z,93.80
2018-08-13T12:26:35.253Z,98.00
2018-08-13T12:29:03.519Z,99.90
2018-08-13T12:31:31.680Z,99.90
2018-08-13T12:33:59.881Z,99.90
2018-08-13T12:36:28.090Z,99.90
2018-08-13T12:38:56.389Z,99.90
2018-08-13T12:41:24.564Z,99.90
2018-08-13T12:43:52.863Z,99.90
2018-08-13T12:46:21.032Z,99.90
2018-08-13T12:48:49.261Z,99.90
2018-08-13T12:51:17.464Z,99.90
2018-08-13T12:53:45.628Z,99.90
2018-08-13T12:56:13.825Z,99.90
2018-08-13T12:58:41.971Z,99.90
2018-08-13T13:01:11.095Z,99.90
2018-08-13T13:03:40.368Z,99.90
2018-08-13T13:06:08.550Z,99.90
2018-08-13T13:08:36.728Z,99.90
2018-08-13T13:11:04.908Z,99.90
2018-08-13T13:13:33.140Z,99.70
2018-08-13T13:16:05.414Z,99.90
2018-08-13T13:18:33.615Z,99.70
2018-08-13T13:21:01.840Z,99.70
2018-08-13T13:23:29.991Z,99.90
2018-08-13T13:25:58.194Z,97.70
2018-08-13T13:28:26.369Z,97.20
2018-08-13T13:30:54.520Z,97.40
2018-08-13T13:33:22.832Z,95.60
2018-08-13T13:35:51.000Z,95.80
2018-08-13T13:38:19.187Z,93.80
2018-08-13T13:40:47.865Z,93.70
2018-08-13T13:43:16.108Z,93.60
2018-08-13T13:45:44.369Z,90.00
2018-08-13T13:48:12.518Z,88.60
2018-08-13T13:50:40.675Z,86.00
2018-08-13T13:53:08.927Z,83.30
2018-08-13T13:55:37.092Z,75.10
2018-08-13T13:58:06.035Z,74.90
2018-08-13T14:00:34.241Z,68.70
2018-08-13T14:03:02.401Z,60.00
2018-08-13T14:05:30.747Z,60.10
2018-08-13T14:08:00.795Z,60.60
2018-08-13T14:10:29.911Z,61.20
2018-08-13T14:12:59.065Z,63.00
2018-08-13T14:15:28.432Z,60.50
2018-08-13T14:17:56.604Z,60.70
2018-08-13T14:20:24.843Z,59.10
2018-08-13T14:22:53.003Z,51.80
2018-08-13T14:25:21.177Z,53.50
2018-08-13T14:27:49.478Z,50.20
2018-08-13T14:30:19.863Z,50.40
2018-08-13T14:32:48.596Z,49.80
2018-08-13T14:35:17.670Z,52.40
2018-08-13T14:37:45.882Z,52.70
2018-08-13T14:40:14.114Z,53.40
2018-08-13T14:42:43.035Z,53.10
2018-08-13T14:45:13.072Z,53.30
2018-08-13T14:47:42.724Z,54.40
2018-08-13T14:50:11.653Z,53.70
2018-08-13T14:52:41.039Z,54.20
2018-08-13T14:55:09.243Z,53.80
2018-08-13T14:57:37.410Z,53.20
2018-08-13T15:00:16.540Z,52.50
2018-08-13T15:02:44.823Z,51.70
2018-08-13T15:05:13.042Z,50.70
2018-08-13T15:07:41.345Z,48.20
2018-08-13T15:10:12.978Z,44.80
2018-08-13T15:12:41.672Z,43.60
2018-08-13T15:15:11.041Z,46.20
2018-08-13T15:17:39.490Z,46.40
2018-08-13T15:20:10.269Z,47.40
2018-08-13T15:22:38.468Z,47.00
2018-08-13T15:25:06.672Z,43.30
2018-08-13T15:27:35.280Z,44.50
2018-08-13T15:30:04.598Z,45.10
2018-08-13T15:32:32.808Z,47.00
2018-08-13T15:35:00.977Z,46.60
2018-08-13T15:37:29.198Z,46.60
2018-08-13T15:39:57.360Z,47.80
2018-08-13T15:42:25.578Z,48.50
2018-08-13T15:44:53.732Z,49.60
2018-08-13T15:47:21.910Z,50.50
2018-08-13T15:49:50.098Z,49.30
2018-08-13T15:52:18.278Z,47.10
2018-08-13T15:54:46.456Z,46.90
2018-08-13T15:57:14.687Z,49.80
2018-08-13T15:59:42.873Z,52.90
2018-08-13T16:02:11.197Z,53.30
2018-08-13T16:04:39.420Z,55.50
2018-08-13T16:07:10.129Z,57.60
2018-08-13T16:09:38.351Z,60.00
2018-08-13T16:12:06.765Z,62.00
2018-08-13T16:14:35.080Z,64.70
2018-08-13T16:17:03.240Z,67.10
2018-08-13T16:19:31.446Z,66.30
2018-08-13T16:21:59.684Z,63.60
2018-08-13T16:24:27.872Z,64.40
2018-08-13T16:26:56.362Z,64.10
2018-08-13T16:29:24.537Z,60.50
2018-08-13T16:31:52.714Z,59.10
2018-08-13T16:34:21.103Z,57.40
2018-08-13T16:36:49.288Z,53.80
2018-08-13T16:39:17.448Z,48.20
2018-08-13T16:41:45.640Z,46.80
2018-08-13T16:44:13.822Z,46.60
2018-08-13T16:46:42.046Z,47.30
2018-08-13T16:49:10.222Z,46.40
2018-08-13T16:51:38.504Z,46.50
2018-08-13T16:54:06.698Z,44.30
2018-08-13T16:56:34.905Z,44.80
2018-08-13T16:59:03.113Z,45.40
2018-08-13T17:01:31.398Z,44.90
2018-08-13T17:03:59.560Z,45.40
2018-08-13T17:06:27.751Z,46.00
2018-08-13T17:08:56.421Z,45.60
2018-08-13T17:11:28.831Z,45.10
2018-08-13T17:13:57.082Z,43.70
2018-08-13T17:16:25.219Z,39.70
2018-08-13T17:18:53.392Z,38.10
2018-08-13T17:21:21.577Z,37.60
2018-08-13T17:23:49.804Z,35.90
2018-08-13T17:26:17.953Z,37.80
2018-08-13T17:28:48.230Z,40.70
2018-08-13T17:31:16.436Z,44.40
2018-08-13T17:33:44.609Z,45.30
2018-08-13T17:36:12.844Z,47.30
2018-08-13T17:38:41.012Z,47.00
2018-08-13T17:41:09.655Z,47.50
2018-08-13T17:43:38.029Z,45.50
2018-08-13T17:46:10.226Z,45.30
2018-08-13T17:48:41.068Z,46.20
2018-08-13T17:51:12.698Z,45.00
2018-08-13T17:53:43.135Z,41.80
2018-08-13T17:56:13.259Z,43.80
2018-08-13T17:58:42.779Z,48.10
2018-08-13T18:01:12.207Z,51.50
2018-08-13T18:03:40.979Z,54.90
2018-08-13T18:06:11.253Z,56.60
2018-08-13T18:08:40.369Z,58.70
2018-08-13T18:11:09.480Z,62.60
2018-08-13T18:13:39.455Z,62.10
2018-08-13T18:16:09.942Z,58.40
2018-08-13T18:18:39.663Z,54.00
2018-08-13T18:21:09.585Z,54.50
2018-08-13T18:23:38.867Z,53.50
2018-08-13T18:26:08.340Z,53.00
2018-08-13T18:28:38.080Z,54.00
2018-08-13T18:31:09.174Z,57.10
2018-08-13T18:33:38.350Z,60.50
2018-08-13T18:36:07.395Z,64.30
2018-08-13T18:38:36.523Z,68.30
2018-08-13T18:41:07.117Z,73.10
2018-08-13T18:43:36.835Z,74.40
2018-08-13T18:46:06.736Z,75.20
2018-08-13T18:48:35.910Z,75.40
2018-08-13T18:51:04.891Z,76.30
2018-08-13T18:53:34.814Z,77.40
2018-08-13T18:56:03.854Z,73.90
2018-08-13T18:58:32.640Z,70.50
2018-08-13T19:01:01.194Z,69.10
2018-08-13T19:03:30.444Z,66.70
2018-08-13T19:05:58.724Z,67.10
2018-08-13T19:08:26.956Z,66.10
2018-08-13T19:10:55.146Z,66.40
2018-08-13T19:13:23.474Z,69.30
2018-08-13T19:15:51.851Z,69.20
2018-08-13T19:18:20.115Z,71.10
2018-08-13T19:20:48.373Z,73.50
2018-08-13T19:23:16.682Z,79.40
2018-08-13T19:25:45.071Z,84.10
2018-08-13T19:28:13.336Z,89.00
2018-08-13T19:30:41.527Z,90.30
2018-08-13T19:33:09.826Z,91.00
2018-08-13T19:35:38.159Z,91.50
2018-08-13T19:38:06.451Z,92.10
2018-08-13T19:40:34.661Z,93.10
2018-08-13T19:43:02.989Z,93.20
2018-08-13T19:45:31.258Z,93.50
2018-08-13T19:47:59.461Z,93.50
2018-08-13T19:50:27.781Z,94.10
2018-08-13T19:52:55.962Z,94.50
2018-08-13T19:55:24.178Z,94.70
2018-08-13T19:57:53.901Z,95.10
2018-08-13T20:00:24.432Z,95.10
2018-08-13T20:02:52.935Z,95.10
2018-08-13T20:05:22.871Z,95.20
2018-08-13T20:07:51.428Z,95.60
2018-08-13T20:10:19.603Z,95.70
2018-08-13T20:12:48.213Z,96.00
2018-08-13T20:15:16.439Z,95.90
2018-08-13T20:17:44.972Z,96.30
2018-08-13T20:20:17.432Z,96.60
2018-08-13T20:22:47.401Z,96.70
2018-08-13T20:25:17.544Z,96.80
2018-08-13T20:27:46.333Z,96.80
2018-08-13T20:30:16.614Z,96.80
2018-08-13T20:32:46.142Z,96.90
2018-08-13T20:35:14.323Z,97.10
2018-08-13T20:37:42.566Z,97.40
2018-08-13T20:40:12.706Z,97.60
2018-08-13T20:42:41.240Z,97.80
2018-08-13T20:45:12.057Z,97.80
2018-08-13T20:47:40.424Z,97.70
2018-08-13T20:50:11.256Z,97.70
2018-08-13T20:52:39.684Z,97.70
2018-08-13T20:55:11.206Z,98.00
2018-08-13T20:57:39.548Z,98.30
2018-08-13T21:00:09.183Z,98.40
2018-08-13T21:02:37.674Z,98.70
2018-08-13T21:05:05.885Z,98.80
2018-08-13T21:07:34.177Z,99.10
2018-08-13T21:10:02.692Z,99.30
2018-08-13T21:12:31.156Z,99.80
2018-08-13T21:14:59.349Z,99.90
2018-08-13T21:17:27.788Z,99.90
2018-08-13T21:19:55.971Z,99.90
2018-08-13T21:22:24.189Z,99.90
2018-08-13T21:24:52.410Z,99.90
2018-08-13T21:27:20.695Z,99.90
2018-08-13T21:29:49.010Z,99.90
2018-08-13T21:32:17.212Z,99.90
2018-08-13T21:34:45.401Z,99.90
2018-08-13T21:37:13.626Z,99.90
2018-08-13T21:39:41.836Z,99.90
2018-08-13T21:42:10.045Z,99.90
2018-08-13T21:44:38.229Z,99.90
2018-08-13T21:47:06.529Z,99.90
2018-08-13T21:49:34.756Z,99.90
2018-08-13T21:52:02.892Z,99.90
2018-08-13T21:54:31.073Z,99.90
2018-08-13T21:56:59.291Z,99.90
2018-08-13T21:59:27.516Z,99.90
2018-08-13T22:01:55.776Z,99.90
2018-08-13T22:04:23.899Z,99.90
2018-08-13T22:06:52.061Z,99.90
2018-08-13T22:09:20.284Z,99.90
2018-08-13T22:11:48.477Z,99.90
2018-08-13T22:14:16.664Z,99.90
2018-08-13T22:16:44.930Z,99.90
2018-08-13T22:19:13.082Z,99.90
2018-08-13T22:21:41.314Z,99.90
2018-08-13T22:24:21.044Z,99.90
2018-08-13T22:26:49.208Z,99.90
2018-08-13T22:29:17.398Z,99.90
2018-08-13T22:31:45.816Z,99.90
2018-08-13T22:34:14.012Z,99.90
2018-08-13T22:36:42.184Z,99.90
2018-08-13T22:39:10.389Z,99.90
2018-08-13T22:41:38.608Z,99.90
2018-08-13T22:44:06.792Z,99.90
2018-08-13T22:46:35.240Z,99.90
2018-08-13T22:49:03.461Z,99.90
2018-08-13T22:51:31.654Z,99.90
2018-08-13T22:53:59.906Z,99.90
2018-08-13T22:56:28.533Z,99.90
2018-08-13T22:58:57.369Z,99.90
2018-08-13T23:01:26.471Z,99.90
2018-08-13T23:03:55.220Z,99.90
2018-08-13T23:06:23.400Z,99.90
2018-08-13T23:08:51.585Z,99.90
2018-08-13T23:11:19.740Z,99.90
2018-08-13T23:13:47.904Z,99.90
2018-08-13T23:16:16.097Z,99.90
2018-08-13T23:18:44.294Z,99.90
2018-08-13T23:21:12.489Z,99.90
2018-08-13T23:23:40.705Z,99.90
2018-08-13T23:26:08.869Z,99.90
2018-08-13T23:28:37.070Z,99.90
2018-08-13T23:31:05.260Z,99.90
2018-08-13T23:33:33.501Z,99.90
2018-08-13T23:36:01.745Z,99.90
2018-08-13T23:38:29.955Z,99.90
2018-08-13T23:40:58.141Z,99.90
2018-08-13T23:43:26.319Z,99.90
2018-08-13T23:45:54.512Z,99.90
2018-08-13T23:48:22.679Z,99.90
2018-08-13T23:50:50.890Z,99.90
2018-08-13T23:53:19.078Z,99.90
2018-08-13T23:55:47.282Z,99.90
2018-08-13T23:58:15.457Z,99.90
